createdAt,value
2018-12-15T00:00:25.310Z,65.00
2018-12-15T00:02:53.886Z,65.35
2018-12-15T00:05:21.467Z,65.65
2018-12-15T00:07:48.905Z,65.18
2018-12-15T00:10:16.309Z,65.14
2018-12-15T00:12:43.871Z,65.06
2018-12-15T00:15:11.278Z,64.98
2018-12-15T00:17:38.674Z,65.12
2018-12-15T00:20:06.110Z,64.91
2018-12-15T00:22:33.614Z,64.99
2018-12-15T00:25:01.047Z,65.04
2018-12-15T00:27:28.493Z,64.77
2018-12-15T00:29:55.903Z,65.18
2018-12-15T00:32:23.312Z,65.18
2018-12-15T00:34:50.745Z,64.65
2018-12-15T00:37:18.174Z,64.57
2018-12-15T00:39:45.596Z,64.69
2018-12-15T00:42:13.741Z,64.70
2018-12-15T00:44:41.234Z,64.14
2018-12-15T00:47:13.748Z,64.12
2018-12-15T00:49:36.139Z,64.40
2018-12-15T00:52:04.388Z,64.41
2018-12-15T00:54:31.792Z,64.58
2018-12-15T00:56:59.207Z,64.41
2018-12-15T00:59:26.652Z,64.29
2018-12-15T01:01:54.377Z,64.14
2018-12-15T01:04:21.795Z,64.37
2018-12-15T01:06:49.879Z,64.19
2018-12-15T01:09:17.309Z,64.26
2018-12-15T01:11:44.711Z,64.33
2018-12-15T01:14:12.128Z,64.37
2018-12-15T01:16:39.540Z,64.83
2018-12-15T01:19:06.958Z,64.87
2018-12-15T01:21:34.372Z,64.67
2018-12-15T01:24:01.804Z,64.66
2018-12-15T01:26:29.209Z,64.39
2018-12-15T01:28:56.625Z,64.69
2018-12-15T01:31:24.035Z,65.06
2018-12-15T01:33:51.450Z,65.10
2018-12-15T01:36:19.707Z,65.32
2018-12-15T01:38:47.110Z,65.30
2018-12-15T01:41:14.737Z,65.09
2018-12-15T01:43:42.203Z,65.10
2018-12-15T01:46:09.721Z,65.12
2018-12-15T01:48:37.142Z,65.75
2018-12-15T01:51:04.546Z,65.50
2018-12-15T01:53:32.015Z,65.49
2018-12-15T01:55:59.863Z,65.26
2018-12-15T01:58:27.298Z,65.71
2018-12-15T02:00:54.756Z,65.71
2018-12-15T02:03:22.161Z,65.36
2018-12-15T02:05:49.580Z,65.10
2018-12-15T02:08:17.362Z,64.84
2018-12-15T02:10:44.770Z,64.89
2018-12-15T02:13:12.547Z,64.41
2018-12-15T02:15:39.950Z,64.53
2018-12-15T02:18:07.360Z,64.34
2018-12-15T02:20:34.773Z,64.17
2018-12-15T02:23:02.207Z,64.70
2018-12-15T02:25:29.630Z,64.65
2018-12-15T02:27:57.028Z,64.56
2018-12-15T02:30:24.451Z,64.54
2018-12-15T02:32:51.859Z,64.44
2018-12-15T02:35:19.419Z,64.54
2018-12-15T02:37:47.975Z,64.55
2018-12-15T02:40:15.388Z,64.67
2018-12-15T02:42:42.801Z,64.68
2018-12-15T02:45:10.299Z,64.31
2018-12-15T02:47:41.527Z,63.82
2018-12-15T02:50:05.159Z,63.83
2018-12-15T02:52:32.576Z,63.93
2018-12-15T02:54:59.967Z,64.34
2018-12-15T02:57:27.387Z,64.17
2018-12-15T02:59:54.775Z,64.34
2018-12-15T03:02:22.202Z,64.37
2018-12-15T03:04:49.725Z,64.41
2018-12-15T03:07:17.134Z,64.46
2018-12-15T03:09:44.598Z,64.41
2018-12-15T03:12:12.012Z,64.40
2018-12-15T03:14:39.420Z,64.53
2018-12-15T03:17:06.836Z,64.07
2018-12-15T03:19:34.243Z,64.03
2018-12-15T03:22:02.587Z,64.17
2018-12-15T03:24:30.015Z,64.17
2018-12-15T03:26:57.419Z,64.35
2018-12-15T03:29:24.831Z,64.10
2018-12-15T03:31:52.242Z,63.96
2018-12-15T03:34:19.651Z,64.11
2018-12-15T03:36:47.073Z,64.22
2018-12-15T03:39:14.508Z,64.22
2018-12-15T03:41:41.928Z,64.32
2018-12-15T03:44:09.343Z,64.32
2018-12-15T03:46:36.767Z,64.52
2018-12-15T03:49:04.192Z,64.42
2018-12-15T03:51:31.612Z,64.60
2018-12-15T03:53:59.022Z,64.46
2018-12-15T03:56:26.425Z,64.27
2018-12-15T03:58:53.829Z,64.65
2018-12-15T04:01:21.364Z,64.52
2018-12-15T04:03:48.765Z,64.94
2018-12-15T04:06:16.175Z,64.67
2018-12-15T04:08:43.640Z,64.56
2018-12-15T04:11:11.078Z,64.59
2018-12-15T04:13:38.590Z,64.54
2018-12-15T04:16:06.010Z,64.47
2018-12-15T04:18:33.474Z,64.70
2018-12-15T04:21:00.933Z,64.98
2018-12-15T04:23:29.321Z,64.65
2018-12-15T04:25:57.179Z,64.82
2018-12-15T04:28:24.631Z,65.00
2018-12-15T04:30:52.733Z,64.98
2018-12-15T04:33:20.145Z,64.49
2018-12-15T04:35:47.656Z,65.00
2018-12-15T04:38:15.050Z,64.82
2018-12-15T04:40:42.472Z,64.54
2018-12-15T04:43:09.889Z,64.72
2018-12-15T04:45:37.304Z,64.84
2018-12-15T04:48:10.808Z,64.55
2018-12-15T04:50:32.176Z,64.52
2018-12-15T04:52:59.657Z,65.08
2018-12-15T04:55:27.410Z,65.20
2018-12-15T04:57:54.855Z,65.25
2018-12-15T05:00:22.251Z,65.54
2018-12-15T05:02:49.834Z,65.42
2018-12-15T05:05:17.233Z,65.29
2018-12-15T05:07:44.694Z,64.92
2018-12-15T05:10:12.640Z,64.96
2018-12-15T05:12:40.052Z,64.92
2018-12-15T05:15:07.466Z,64.98
2018-12-15T05:17:34.880Z,64.87
2018-12-15T05:20:02.308Z,64.87
2018-12-15T05:22:29.717Z,64.97
2018-12-15T05:24:57.156Z,65.12
2018-12-15T05:27:24.568Z,65.02
2018-12-15T05:29:52.032Z,65.17
2018-12-15T05:32:19.468Z,65.38
2018-12-15T05:34:46.926Z,65.53
2018-12-15T05:37:14.349Z,65.95
2018-12-15T05:39:41.870Z,66.11
2018-12-15T05:42:09.295Z,66.37
2018-12-15T05:44:36.919Z,66.21
2018-12-15T05:47:04.348Z,66.22
2018-12-15T05:49:31.762Z,66.30
2018-12-15T05:51:59.159Z,65.93
2018-12-15T05:54:26.600Z,66.06
2018-12-15T05:56:54.027Z,66.10
2018-12-15T05:59:21.472Z,65.86
2018-12-15T06:01:48.883Z,65.79
2018-12-15T06:04:16.289Z,65.65
2018-12-15T06:06:43.861Z,65.60
2018-12-15T06:09:11.263Z,65.21
2018-12-15T06:11:38.711Z,65.15
2018-12-15T06:14:06.608Z,65.11
2018-12-15T06:16:34.000Z,64.96
2018-12-15T06:19:01.409Z,64.82
2018-12-15T06:21:28.854Z,64.82
2018-12-15T06:23:56.268Z,64.62
2018-12-15T06:26:23.688Z,64.46
2018-12-15T06:28:51.082Z,64.35
2018-12-15T06:31:18.518Z,64.18
2018-12-15T06:33:45.910Z,64.63
2018-12-15T06:36:13.364Z,64.74
2018-12-15T06:38:40.791Z,64.59
2018-12-15T06:41:08.736Z,64.57
2018-12-15T06:43:36.137Z,64.49
2018-12-15T06:46:03.566Z,64.69
2018-12-15T06:48:30.971Z,64.37
2018-12-15T06:50:58.391Z,64.41
2018-12-15T06:53:25.831Z,64.28
2018-12-15T06:55:53.240Z,64.66
2018-12-15T06:58:20.705Z,64.83
2018-12-15T07:00:48.127Z,64.92
2018-12-15T07:03:16.390Z,64.41
2018-12-15T07:05:43.851Z,64.50
2018-12-15T07:08:11.301Z,63.66
2018-12-15T07:10:38.782Z,64.12
2018-12-15T07:13:06.198Z,64.33
2018-12-15T07:15:33.611Z,64.48
2018-12-15T07:18:01.179Z,64.09
2018-12-15T07:20:29.479Z,64.32
2018-12-15T07:22:56.922Z,64.26
2018-12-15T07:25:24.465Z,64.11
2018-12-15T07:27:52.530Z,64.17
2018-12-15T07:30:20.237Z,64.01
2018-12-15T07:32:47.682Z,64.06
2018-12-15T07:35:15.083Z,63.88
2018-12-15T07:37:42.701Z,63.64
2018-12-15T07:40:10.128Z,63.43
2018-12-15T07:42:37.543Z,63.55
2018-12-15T07:45:04.978Z,63.34
2018-12-15T07:47:32.375Z,63.29
2018-12-15T07:49:59.906Z,63.30
2018-12-15T07:52:27.337Z,63.61
2018-12-15T07:54:54.741Z,63.52
2018-12-15T07:57:22.179Z,63.65
2018-12-15T07:59:49.604Z,63.79
2018-12-15T08:02:17.257Z,63.47
2018-12-15T08:04:44.474Z,63.44
2018-12-15T08:07:11.881Z,63.48
2018-12-15T08:09:39.295Z,63.39
2018-12-15T08:12:12.927Z,63.59
2018-12-15T08:14:40.373Z,63.47
2018-12-15T08:17:08.547Z,63.55
2018-12-15T08:19:36.127Z,63.80
2018-12-15T08:22:03.558Z,63.63
2018-12-15T08:24:30.996Z,63.60
2018-12-15T08:27:00.218Z,63.39
2018-12-15T08:29:27.631Z,63.57
2018-12-15T08:31:55.056Z,63.43
2018-12-15T08:34:22.469Z,63.52
2018-12-15T08:36:49.888Z,63.47
2018-12-15T08:39:17.343Z,63.63
2018-12-15T08:41:44.755Z,63.64
2018-12-15T08:44:12.170Z,63.54
2018-12-15T08:46:39.584Z,63.31
2018-12-15T08:49:07.090Z,63.23
2018-12-15T08:51:34.496Z,63.25
2018-12-15T08:54:01.891Z,63.23
2018-12-15T08:56:29.317Z,63.36
2018-12-15T08:58:56.724Z,63.15
2018-12-15T09:01:24.149Z,62.98
2018-12-15T09:03:52.323Z,63.12
2018-12-15T09:06:19.771Z,62.96
2018-12-15T09:08:47.931Z,62.96
2018-12-15T09:11:15.385Z,62.96
2018-12-15T09:13:42.803Z,62.88
2018-12-15T09:16:10.834Z,62.77
2018-12-15T09:18:38.260Z,63.03
2018-12-15T09:21:05.854Z,62.87
2018-12-15T09:23:33.268Z,62.56
2018-12-15T09:26:00.738Z,61.79
2018-12-15T09:28:28.156Z,61.78
2018-12-15T09:30:55.582Z,62.51
2018-12-15T09:33:23.095Z,62.29
2018-12-15T09:35:50.550Z,61.93
2018-12-15T09:38:18.005Z,61.22
2018-12-15T09:40:45.463Z,61.38
2018-12-15T09:43:12.913Z,61.19
2018-12-15T09:45:40.315Z,60.67
2018-12-15T09:48:07.723Z,60.25
2018-12-15T09:53:07.284Z,60.63
2018-12-15T09:55:34.716Z,60.91
2018-12-15T09:58:02.155Z,60.81
2018-12-15T10:00:29.589Z,61.00
2018-12-15T10:02:57.005Z,61.38
2018-12-15T10:05:24.455Z,61.72
2018-12-15T10:07:51.868Z,61.08
2018-12-15T10:10:19.310Z,60.66
2018-12-15T10:12:46.709Z,60.24
2018-12-15T10:15:14.126Z,60.09
2018-12-15T10:17:41.534Z,60.20
2018-12-15T10:20:08.984Z,60.13
2018-12-15T10:22:36.761Z,59.68
2018-12-15T10:25:04.170Z,59.27
2018-12-15T10:27:31.569Z,59.32
2018-12-15T10:30:04.521Z,59.39
2018-12-15T10:35:28.873Z,58.82
2018-12-15T10:40:29.183Z,58.79
2018-12-15T10:42:56.594Z,58.71
2018-12-15T10:45:24.002Z,58.54
2018-12-15T10:47:51.471Z,58.30
2018-12-15T10:50:19.151Z,57.78
2018-12-15T10:52:46.583Z,57.80
2018-12-15T10:55:14.019Z,57.90
2018-12-15T10:57:41.440Z,57.65
2018-12-15T11:00:08.860Z,57.42
2018-12-15T11:02:36.347Z,57.34
2018-12-15T11:05:03.755Z,56.84
2018-12-15T11:07:31.224Z,56.92
2018-12-15T11:09:58.632Z,57.00
2018-12-15T11:12:26.071Z,56.81
2018-12-15T11:14:53.563Z,56.74
2018-12-15T11:17:22.684Z,56.34
2018-12-15T11:19:50.808Z,56.28
2018-12-15T11:22:22.007Z,56.39
2018-12-15T11:24:49.563Z,55.92
2018-12-15T11:27:19.559Z,55.87
2018-12-15T11:29:47.782Z,55.93
2018-12-15T11:32:15.537Z,56.01
2018-12-15T11:34:44.296Z,56.22
2018-12-15T11:37:11.808Z,55.79
2018-12-15T11:39:39.500Z,55.40
2018-12-15T11:42:07.061Z,54.91
2018-12-15T11:44:34.738Z,54.71
2018-12-15T11:47:02.296Z,55.06
2018-12-15T11:49:29.883Z,54.55
2018-12-15T11:51:57.439Z,53.58
2018-12-15T11:54:24.932Z,53.87
2018-12-15T11:56:52.396Z,54.01
2018-12-15T11:59:19.808Z,53.63
2018-12-15T12:01:47.406Z,53.09
2018-12-15T12:04:15.097Z,52.72
2018-12-15T12:06:44.154Z,53.31
2018-12-15T12:09:11.667Z,53.45
2018-12-15T12:11:39.072Z,53.32
2018-12-15T12:14:06.867Z,53.78
2018-12-15T12:16:34.760Z,53.36
2018-12-15T12:19:02.607Z,52.39
2018-12-15T12:21:31.059Z,52.74
2018-12-15T12:23:58.785Z,53.14
2018-12-15T12:26:26.271Z,53.10
2018-12-15T12:28:53.798Z,53.33
2018-12-15T12:31:21.721Z,53.52
2018-12-15T12:33:49.195Z,53.34
2018-12-15T12:36:17.039Z,53.34
2018-12-15T12:38:46.216Z,53.15
2018-12-15T12:41:13.746Z,53.36
2018-12-15T12:43:41.414Z,53.40
2018-12-15T12:46:09.294Z,53.43
2018-12-15T12:48:38.015Z,53.42
2018-12-15T12:51:07.534Z,53.23
2018-12-15T12:53:36.515Z,53.30
2018-12-15T12:56:04.345Z,53.04
2018-12-15T12:58:36.310Z,52.77
2018-12-15T13:01:03.894Z,52.47
2018-12-15T13:03:31.373Z,52.33
2018-12-15T13:05:58.768Z,52.38
2018-12-15T13:08:26.168Z,52.62
2018-12-15T13:10:53.758Z,52.14
2018-12-15T13:13:22.072Z,51.73
2018-12-15T13:15:49.496Z,51.64
2018-12-15T13:18:16.928Z,51.65
2018-12-15T13:20:44.366Z,51.67
2018-12-15T13:23:11.923Z,51.05
2018-12-15T13:25:39.340Z,50.45
2018-12-15T13:28:07.349Z,50.11
2018-12-15T13:30:34.970Z,49.86
2018-12-15T13:33:02.282Z,49.90
2018-12-15T13:35:29.730Z,50.31
2018-12-15T13:37:57.134Z,50.33
2018-12-15T13:40:24.561Z,50.46
2018-12-15T13:42:52.878Z,50.19
2018-12-15T13:45:21.296Z,50.42
2018-12-15T13:47:48.722Z,50.11
2018-12-15T13:50:16.265Z,50.05
2018-12-15T13:52:43.752Z,50.33
2018-12-15T13:55:11.234Z,50.20
2018-12-15T13:57:38.620Z,50.74
2018-12-15T14:00:06.071Z,50.83
2018-12-15T14:02:33.544Z,50.87
2018-12-15T14:05:00.976Z,51.49
2018-12-15T14:07:28.984Z,51.68
2018-12-15T14:09:56.444Z,51.68
2018-12-15T14:12:23.869Z,51.97
2018-12-15T14:14:51.317Z,52.30
2018-12-15T14:17:18.736Z,52.41
2018-12-15T14:19:46.141Z,52.72
2018-12-15T14:22:13.563Z,53.36
2018-12-15T14:24:41.126Z,53.57
2018-12-15T14:27:08.551Z,53.89
2018-12-15T14:29:36.099Z,54.37
2018-12-15T14:32:03.513Z,54.75
2018-12-15T14:34:30.953Z,54.94
2018-12-15T14:36:58.386Z,55.10
2018-12-15T14:39:25.799Z,54.92
2018-12-15T14:41:53.197Z,55.02
2018-12-15T14:44:20.627Z,55.17
2018-12-15T14:46:48.034Z,55.01
2018-12-15T14:49:15.521Z,55.10
2018-12-15T14:51:42.947Z,55.10
2018-12-15T14:54:10.362Z,55.25
2018-12-15T14:56:37.905Z,55.23
2018-12-15T14:59:05.311Z,55.45
2018-12-15T15:01:32.799Z,55.33
2018-12-15T15:04:00.283Z,55.53
2018-12-15T15:06:27.708Z,55.56
2018-12-15T15:08:55.188Z,55.82
2018-12-15T15:11:22.618Z,55.70
2018-12-15T15:13:50.033Z,55.84
2018-12-15T15:16:17.456Z,55.66
2018-12-15T15:18:45.241Z,55.70
2018-12-15T15:21:12.857Z,55.93
2018-12-15T15:23:40.462Z,55.75
2018-12-15T15:26:07.909Z,55.91
2018-12-15T15:28:35.379Z,55.91
2018-12-15T15:31:02.835Z,55.85
2018-12-15T15:33:30.468Z,56.14
2018-12-15T15:35:58.099Z,56.38
2018-12-15T15:38:25.518Z,56.63
2018-12-15T15:40:53.795Z,56.52
2018-12-15T15:43:21.222Z,56.49
2018-12-15T15:45:48.642Z,56.65
2018-12-15T15:48:16.055Z,56.62
2018-12-15T15:50:43.468Z,56.64
2018-12-15T15:53:10.916Z,56.50
2018-12-15T15:55:38.345Z,56.54
2018-12-15T15:58:06.695Z,56.91
2018-12-15T16:00:34.137Z,57.06
2018-12-15T16:03:01.649Z,57.06
2018-12-15T16:05:29.170Z,56.92
2018-12-15T16:07:56.590Z,56.76
2018-12-15T16:10:23.992Z,56.67
2018-12-15T16:12:51.410Z,56.69
2018-12-15T16:15:18.805Z,56.94
2018-12-15T16:17:46.271Z,56.97
2018-12-15T16:20:13.684Z,56.79
2018-12-15T16:22:41.232Z,56.59
2018-12-15T16:25:08.633Z,56.35
2018-12-15T16:27:36.031Z,56.28
2018-12-15T16:30:04.073Z,56.39
2018-12-15T16:32:31.528Z,56.35
2018-12-15T16:34:58.952Z,56.75
2018-12-15T16:37:26.425Z,56.78
2018-12-15T16:39:53.926Z,56.65
2018-12-15T16:42:21.341Z,56.61
2018-12-15T16:44:49.491Z,56.59
2018-12-15T16:47:16.895Z,56.36
2018-12-15T16:49:44.368Z,56.39
2018-12-15T16:52:11.824Z,56.31
2018-12-15T16:54:39.264Z,56.33
2018-12-15T16:57:06.691Z,56.40
2018-12-15T16:59:34.091Z,56.43
2018-12-15T17:02:01.507Z,56.58
2018-12-15T17:04:28.915Z,56.99
2018-12-15T17:06:56.477Z,56.79
2018-12-15T17:09:23.893Z,56.96
2018-12-15T17:11:51.435Z,56.96
2018-12-15T17:14:18.833Z,56.84
2018-12-15T17:16:46.258Z,56.85
2018-12-15T17:19:13.707Z,56.58
2018-12-15T17:21:41.124Z,56.64
2018-12-15T17:24:08.575Z,56.67
2018-12-15T17:26:35.980Z,56.78
2018-12-15T17:49:09.210Z,54.97
2018-12-15T17:51:36.978Z,55.66
2018-12-15T17:54:04.426Z,56.15
2018-12-15T17:56:31.961Z,56.06
2018-12-15T17:59:00.259Z,56.18
2018-12-15T18:01:27.684Z,55.95
2018-12-15T18:03:55.091Z,55.98
2018-12-15T18:06:22.608Z,56.50
2018-12-15T18:08:50.041Z,56.68
2018-12-15T18:11:17.444Z,56.60
2018-12-15T18:13:44.896Z,56.54
2018-12-15T18:16:12.475Z,56.26
2018-12-15T18:18:39.931Z,56.31
2018-12-15T18:21:09.985Z,56.12
2018-12-15T18:23:35.622Z,56.27
2018-12-15T18:26:03.019Z,56.85
2018-12-15T18:28:30.443Z,56.37
2018-12-15T18:30:57.862Z,56.66
2018-12-15T18:33:25.282Z,56.57
2018-12-15T18:35:52.769Z,56.86
2018-12-15T18:38:20.155Z,57.00
2018-12-15T18:40:47.588Z,56.87
2018-12-15T18:43:15.085Z,56.66
2018-12-15T18:45:42.509Z,56.44
2018-12-15T18:48:09.919Z,56.50
2018-12-15T18:50:37.443Z,56.29
2018-12-15T18:53:04.878Z,56.11
2018-12-15T18:55:32.341Z,55.97
2018-12-15T18:57:59.759Z,56.18
2018-12-15T19:00:27.178Z,56.09
2018-12-15T19:02:54.597Z,55.90
2018-12-15T19:05:22.018Z,56.04
2018-12-15T19:07:49.429Z,56.11
2018-12-15T19:10:16.846Z,56.12
2018-12-15T19:12:44.339Z,56.09
2018-12-15T19:15:11.745Z,56.15
2018-12-15T19:17:39.499Z,56.17
2018-12-15T19:20:06.944Z,56.08
2018-12-15T19:22:34.366Z,55.94
2018-12-15T19:25:02.151Z,56.00
2018-12-15T19:27:29.567Z,56.02
2018-12-15T19:29:57.096Z,55.92
2018-12-15T19:32:24.489Z,55.86
2018-12-15T19:34:52.570Z,55.94
2018-12-15T19:37:19.330Z,56.09
2018-12-15T19:39:46.747Z,56.13
2018-12-15T19:42:14.144Z,56.30
2018-12-15T19:44:41.560Z,56.33
2018-12-15T19:47:08.990Z,56.22
2018-12-15T19:49:36.584Z,56.06
2018-12-15T19:52:04.012Z,55.72
2018-12-15T19:54:32.109Z,55.54
2018-12-15T19:56:59.528Z,55.51
2018-12-15T19:59:26.960Z,55.80
2018-12-15T20:01:54.564Z,55.85
2018-12-15T20:04:21.953Z,56.21
2018-12-15T20:06:49.967Z,56.24
2018-12-15T20:09:17.728Z,56.11
2018-12-15T20:11:46.503Z,56.81
2018-12-15T20:14:13.976Z,56.90
2018-12-15T20:16:41.386Z,56.97
2018-12-15T20:19:08.843Z,57.04
2018-12-15T20:21:36.301Z,57.12
2018-12-15T20:24:03.824Z,56.79
2018-12-15T20:26:31.239Z,56.61
2018-12-15T20:28:58.657Z,56.96
2018-12-15T20:31:26.080Z,56.98
2018-12-15T20:36:28.749Z,57.53
2018-12-15T20:38:56.195Z,57.57
2018-12-15T20:41:23.609Z,57.42
2018-12-15T20:43:51.018Z,57.68
2018-12-15T20:46:18.433Z,57.76
2018-12-15T20:48:45.875Z,58.15
2018-12-15T20:51:13.356Z,57.90
2018-12-15T20:53:40.796Z,57.54
2018-12-15T20:56:08.203Z,57.46
2018-12-15T20:58:35.619Z,57.42
2018-12-15T21:01:03.118Z,57.78
2018-12-15T21:03:30.529Z,57.55
2018-12-15T21:05:58.337Z,57.77
2018-12-15T21:08:25.825Z,57.86
2018-12-15T21:10:53.235Z,58.00
2018-12-15T21:13:20.703Z,58.18
2018-12-15T21:15:48.551Z,57.86
2018-12-15T21:18:16.058Z,57.92
2018-12-15T21:20:43.516Z,57.95
2018-12-15T21:23:10.943Z,58.63
2018-12-15T21:25:38.377Z,58.88
2018-12-15T21:28:06.007Z,58.90
2018-12-15T21:30:33.423Z,58.89
2018-12-15T21:33:00.824Z,59.12
2018-12-15T21:35:28.261Z,58.97
2018-12-15T21:37:55.659Z,59.03
2018-12-15T21:40:23.162Z,58.92
2018-12-15T21:42:50.625Z,58.82
2018-12-15T21:45:18.106Z,58.71
2018-12-15T21:47:45.525Z,58.82
2018-12-15T21:50:12.962Z,59.21
2018-12-15T21:52:40.395Z,59.51
2018-12-15T21:55:07.961Z,60.12
2018-12-15T21:57:35.373Z,60.64
2018-12-15T22:00:02.799Z,61.90
2018-12-15T22:02:30.464Z,62.83
2018-12-15T22:04:57.885Z,63.33
2018-12-15T22:07:25.313Z,63.84
2018-12-15T22:09:52.710Z,64.46
2018-12-15T22:12:20.144Z,64.98
2018-12-15T22:14:47.559Z,65.61
2018-12-15T22:17:14.964Z,66.99
2018-12-15T22:19:42.363Z,68.39
2018-12-15T22:22:09.779Z,69.16
2018-12-15T22:24:37.194Z,69.96
2018-12-15T22:27:04.674Z,70.99
2018-12-15T22:29:32.247Z,72.08
2018-12-15T22:31:59.678Z,72.74
2018-12-15T22:34:27.088Z,72.87
2018-12-15T22:36:54.555Z,73.47
2018-12-15T22:39:22.147Z,74.10
2018-12-15T22:41:49.567Z,74.70
2018-12-15T22:44:17.058Z,75.11
2018-12-15T22:46:44.471Z,75.52
2018-12-15T22:49:11.927Z,75.63
2018-12-15T22:51:39.348Z,75.88
2018-12-15T22:54:06.795Z,76.06
2018-12-15T22:56:34.238Z,76.12
2018-12-15T22:59:01.645Z,76.43
2018-12-15T23:01:29.070Z,76.60
2018-12-15T23:03:56.456Z,76.15
2018-12-15T23:06:23.874Z,76.09
2018-12-15T23:08:51.294Z,76.38
2018-12-15T23:11:18.679Z,76.33
2018-12-15T23:13:46.102Z,76.78
2018-12-15T23:16:13.496Z,76.89
2018-12-15T23:18:40.919Z,76.88
2018-12-15T23:21:08.313Z,77.42
2018-12-15T23:23:35.723Z,77.32
2018-12-15T23:26:03.263Z,76.91
2018-12-15T23:28:30.686Z,76.51
2018-12-15T23:30:58.103Z,76.22
2018-12-15T23:33:25.523Z,76.25
2018-12-15T23:35:52.981Z,76.29
2018-12-15T23:38:20.799Z,76.27
2018-12-15T23:40:48.240Z,75.92
2018-12-15T23:43:15.925Z,75.57
2018-12-15T23:45:43.341Z,75.53
2018-12-15T23:48:10.875Z,76.04
2018-12-15T23:50:38.347Z,76.02
2018-12-15T23:53:05.793Z,76.07
2018-12-15T23:55:33.218Z,76.46
2018-12-15T23:58:00.657Z,76.43
